createdAt,value
2023-03-01T00:03:33.252Z,98349.53
2023-03-01T00:07:35.670Z,98343.56
2023-03-01T00:11:37.849Z,98341.97
2023-03-01T00:15:43.105Z,98348.50
2023-03-01T00:19:47.064Z,98355.97
2023-03-01T00:23:51.073Z,98369.59
2023-03-01T00:27:54.139Z,98370.31
2023-03-01T00:31:56.608Z,98354.59
2023-03-01T00:36:02.336Z,98376.25
2023-03-01T00:40:07.546Z,98350.56
2023-03-01T00:44:11.605Z,98353.09
2023-03-01T00:48:14.172Z,98338.53
2023-03-01T00:52:16.578Z,98330.38
2023-03-01T00:56:21.387Z,98303.13
2023-03-01T01:00:24.424Z,98300.91
2023-03-01T01:04:26.923Z,98298.50
2023-03-01T01:08:30.361Z,98299.53
2023-03-01T01:12:33.782Z,98284.19
2023-03-01T01:16:36.643Z,98272.13
2023-03-01T01:20:39.225Z,98267.28
2023-03-01T01:24:42.015Z,98239.47
2023-03-01T01:28:44.212Z,98217.53
2023-03-01T01:32:46.354Z,98210.19
2023-03-01T01:36:55.069Z,98198.06
2023-03-01T01:40:57.391Z,98202.38
2023-03-01T01:45:29.573Z,98196.41
2023-03-01T01:49:55.721Z,98185.91
2023-03-01T01:54:01.797Z,98182.97
2023-03-01T01:58:07.950Z,98156.13
2023-03-01T02:02:10.595Z,98143.59
2023-03-01T02:06:24.269Z,98162.13
2023-03-01T02:10:30.255Z,98159.25
2023-03-01T02:14:32.479Z,98126.22
2023-03-01T02:18:34.694Z,98168.06
2023-03-01T02:22:39.642Z,98156.78
2023-03-01T02:26:49.883Z,98145.16
2023-03-01T02:31:10.929Z,98139.19
2023-03-01T02:35:15.764Z,98135.34
2023-03-01T02:39:25.038Z,98143.72
2023-03-01T02:43:32.105Z,98152.69
2023-03-01T02:47:34.285Z,98133.34
2023-03-01T02:52:11.924Z,98114.75
2023-03-01T02:56:15.016Z,98130.31
2023-03-01T03:00:24.021Z,98123.97
2023-03-01T03:04:26.218Z,98119.59
2023-03-01T03:08:28.417Z,98123.41
2023-03-01T03:12:36.193Z,98144.78
2023-03-01T03:16:42.869Z,98129.41
2023-03-01T03:20:45.466Z,98109.81
2023-03-01T03:24:47.787Z,98139.09
2023-03-01T03:28:49.850Z,98140.22
2023-03-01T03:32:54.668Z,98115.09
2023-03-01T03:37:00.533Z,98109.72
2023-03-01T03:41:05.947Z,98109.41
2023-03-01T03:45:08.631Z,98080.66
2023-03-01T03:49:10.744Z,98057.44
2023-03-01T03:53:13.637Z,98060.84
2023-03-01T03:57:15.698Z,98055.00
2023-03-01T04:01:17.817Z,98066.91
2023-03-01T04:05:20.480Z,98057.94
2023-03-01T04:09:22.757Z,98050.66
2023-03-01T04:13:26.389Z,98053.91
2023-03-01T04:17:28.553Z,98077.22
2023-03-01T04:21:30.658Z,98052.66
2023-03-01T04:25:32.828Z,98046.72
2023-03-01T04:29:35.348Z,98057.78
2023-03-01T04:33:37.443Z,98043.44
2023-03-01T04:37:40.033Z,98060.00
2023-03-01T04:41:44.297Z,98042.16
2023-03-01T04:45:46.404Z,98063.84
2023-03-01T04:49:48.498Z,98046.78
2023-03-01T04:53:50.810Z,98034.25
2023-03-01T04:57:53.713Z,98034.22
2023-03-01T05:01:58.501Z,98061.88
2023-03-01T05:06:00.877Z,98071.41
2023-03-01T05:10:03.320Z,98085.63
2023-03-01T05:14:09.295Z,98090.44
2023-03-01T05:18:12.763Z,98088.94
2023-03-01T05:22:14.773Z,98098.28
2023-03-01T05:26:28.343Z,98105.41
2023-03-01T05:30:42.217Z,98091.38
2023-03-01T05:34:47.407Z,98077.59
2023-03-01T05:38:49.650Z,98111.00
2023-03-01T05:42:56.146Z,98088.31
2023-03-01T05:46:58.596Z,98105.47
2023-03-01T05:51:01.686Z,98116.50
2023-03-01T05:55:05.410Z,98129.66
2023-03-01T05:59:07.858Z,98144.69
2023-03-01T06:03:12.754Z,98155.78
2023-03-01T06:07:14.808Z,98160.03
2023-03-01T06:11:17.262Z,98169.44
2023-03-01T06:19:49.091Z,98201.53
2023-03-01T06:23:51.180Z,98213.75
2023-03-01T06:27:53.787Z,98221.19
2023-03-01T06:31:55.916Z,98219.56
2023-03-01T06:35:58.087Z,98214.16
2023-03-01T06:40:00.264Z,98222.41
2023-03-01T06:44:03.490Z,98238.25
2023-03-01T06:48:06.890Z,98229.75
2023-03-01T06:52:09.174Z,98235.16
2023-03-01T06:56:11.190Z,98230.31
2023-03-01T07:00:13.943Z,98237.00
2023-03-01T07:04:15.997Z,98233.19
2023-03-01T07:08:18.195Z,98238.16
2023-03-01T07:12:20.327Z,98258.47
2023-03-01T07:16:22.792Z,98269.91
2023-03-01T07:20:26.398Z,98261.44
2023-03-01T07:24:29.353Z,98262.34
2023-03-01T07:28:31.833Z,98251.44
2023-03-01T07:32:34.027Z,98258.47
2023-03-01T07:36:36.212Z,98262.34
2023-03-01T07:40:38.387Z,98252.69
2023-03-01T07:44:40.493Z,98254.16
2023-03-01T07:48:42.712Z,98250.34
2023-03-01T07:52:49.242Z,98242.84
2023-03-01T07:56:51.620Z,98235.50
2023-03-01T08:00:53.763Z,98234.53
2023-03-01T08:04:55.842Z,98236.81
2023-03-01T08:08:59.449Z,98232.94
2023-03-01T08:13:01.631Z,98218.97
2023-03-01T08:17:04.290Z,98231.28
2023-03-01T08:21:09.263Z,98222.31
2023-03-01T08:25:11.374Z,98238.00
2023-03-01T08:29:13.645Z,98228.03
2023-03-01T08:33:15.761Z,98220.09
2023-03-01T08:37:17.968Z,98230.56
2023-03-01T08:41:20.374Z,98225.91
2023-03-01T08:45:22.492Z,98229.59
2023-03-01T08:49:24.907Z,98222.38
2023-03-01T08:53:27.103Z,98227.72
2023-03-01T08:57:29.295Z,98221.72
2023-03-01T09:01:31.550Z,98236.59
2023-03-01T09:05:35.192Z,98231.56
2023-03-01T09:09:37.757Z,98231.00
2023-03-01T09:13:42.390Z,98234.50
2023-03-01T09:17:46.259Z,98240.03
2023-03-01T09:21:54.376Z,98241.34
2023-03-01T09:25:56.509Z,98238.53
2023-03-01T09:29:58.573Z,98244.81
2023-03-01T09:34:00.721Z,98254.59
2023-03-01T09:38:03.109Z,98255.41
2023-03-01T09:42:05.656Z,98253.84
2023-03-01T09:46:15.060Z,98265.16
2023-03-01T09:50:20.113Z,98273.84
2023-03-01T09:54:22.513Z,98274.03
2023-03-01T09:58:24.469Z,98280.53
2023-03-01T10:02:42.827Z,98291.78
2023-03-01T10:06:59.175Z,98295.34
2023-03-01T10:11:01.684Z,98291.44
2023-03-01T10:15:11.827Z,98292.16
2023-03-01T10:19:41.235Z,98305.38
2023-03-01T10:23:43.650Z,98299.03
2023-03-01T10:27:56.122Z,98311.38
2023-03-01T10:31:58.617Z,98312.94
2023-03-01T10:36:00.905Z,98314.13
2023-03-01T10:40:10.940Z,98320.66
2023-03-01T10:44:35.856Z,98319.06
2023-03-01T10:48:37.980Z,98324.34
2023-03-01T10:52:42.917Z,98336.09
2023-03-01T10:56:51.256Z,98338.44
2023-03-01T11:01:01.373Z,98340.13
2023-03-01T11:05:20.700Z,98330.03
2023-03-01T11:09:25.716Z,98331.97
2023-03-01T11:13:28.152Z,98338.59
2023-03-01T11:17:36.552Z,98329.94
2023-03-01T11:21:43.568Z,98319.84
2023-03-01T11:25:55.046Z,98322.91
2023-03-01T11:30:00.207Z,98321.66
2023-03-01T11:34:34.763Z,98308.38
2023-03-01T11:38:39.263Z,98310.91
2023-03-01T11:43:00.050Z,98309.22
2023-03-01T11:47:27.220Z,98307.72
2023-03-01T11:51:45.618Z,98304.91
2023-03-01T11:56:17.872Z,98304.81
2023-03-01T12:00:45.534Z,98301.38
2023-03-01T12:05:25.115Z,98299.41
2023-03-01T12:09:46.076Z,98289.03
2023-03-01T12:14:05.056Z,98280.72
2023-03-01T12:19:01.438Z,98279.44
2023-03-01T12:23:37.499Z,98274.34
2023-03-01T12:28:18.910Z,98266.84
2023-03-01T12:32:44.919Z,98268.63
2023-03-01T12:36:58.278Z,98268.69
2023-03-01T12:41:33.889Z,98258.81
2023-03-01T12:45:54.800Z,98251.88
2023-03-01T12:50:05.913Z,98243.44
2023-03-01T12:54:27.098Z,98238.28
2023-03-01T12:58:50.615Z,98232.69
2023-03-01T13:03:15.532Z,98233.03
2023-03-01T13:07:32.789Z,98219.03
2023-03-01T13:11:35.993Z,98217.56
2023-03-01T13:15:40.504Z,98214.69
2023-03-01T13:19:57.533Z,98204.28
2023-03-01T13:23:59.669Z,98204.66
2023-03-01T13:28:47.280Z,98208.25
2023-03-01T13:32:49.978Z,98192.09
2023-03-01T13:36:52.475Z,98196.41
2023-03-01T13:40:54.517Z,98185.16
2023-03-01T13:44:56.609Z,98177.69
2023-03-01T13:48:58.767Z,98178.31
2023-03-01T13:53:04.136Z,98184.72
2023-03-01T13:57:06.698Z,98175.31
2023-03-01T14:01:23.366Z,98175.94
2023-03-01T14:05:25.647Z,98171.00
2023-03-01T14:09:32.541Z,98171.03
2023-03-01T14:13:56.193Z,98169.78
2023-03-01T14:18:18.511Z,98160.06
2023-03-01T14:22:30.675Z,98155.28
2023-03-01T14:26:36.898Z,98150.94
2023-03-01T14:31:07.751Z,98148.97
2023-03-01T14:35:36.839Z,98153.69
2023-03-01T14:39:39.023Z,98153.13
2023-03-01T14:43:46.056Z,98151.94
2023-03-01T14:47:49.434Z,98150.94
2023-03-01T14:52:06.460Z,98162.47
2023-03-01T14:56:15.902Z,98157.03
2023-03-01T15:00:32.860Z,98156.72
2023-03-01T15:04:35.287Z,98152.09
2023-03-01T15:09:05.453Z,98153.44
2023-03-01T15:13:30.103Z,98148.84
2023-03-01T15:17:35.943Z,98137.44
2023-03-01T15:21:39.864Z,98141.50
2023-03-01T15:25:46.182Z,98144.00
2023-03-01T15:30:01.485Z,98141.44
2023-03-01T15:34:53.608Z,98142.28
2023-03-01T15:38:59.121Z,98135.81
2023-03-01T15:43:02.853Z,98146.34
2023-03-01T15:47:30.004Z,98152.44
2023-03-01T15:51:37.182Z,98142.63
2023-03-01T15:55:39.493Z,98152.09
2023-03-01T15:59:43.309Z,98156.88
2023-03-01T16:03:46.340Z,98150.84
2023-03-01T16:07:48.836Z,98153.34
2023-03-01T16:11:52.473Z,98155.28
2023-03-01T16:15:56.783Z,98158.47
2023-03-01T16:20:00.969Z,98153.19
2023-03-01T16:24:07.159Z,98157.63
2023-03-01T16:28:14.095Z,98157.59
2023-03-01T16:32:23.534Z,98152.56
2023-03-01T16:36:32.123Z,98161.38
2023-03-01T16:40:36.668Z,98161.88
2023-03-01T16:44:39.026Z,98169.03
2023-03-01T16:48:41.613Z,98169.75
2023-03-01T16:52:44.984Z,98176.75
2023-03-01T16:56:47.065Z,98186.63
2023-03-01T17:00:49.278Z,98186.66
2023-03-01T17:04:56.196Z,98193.53
2023-03-01T17:08:58.434Z,98207.00
2023-03-01T17:13:00.634Z,98218.28
2023-03-01T17:17:03.595Z,98211.28
2023-03-01T17:21:06.926Z,98212.44
2023-03-01T17:25:10.608Z,98215.53
2023-03-01T17:29:13.939Z,98217.50
2023-03-01T17:33:16.635Z,98224.56
2023-03-01T17:37:18.890Z,98224.31
2023-03-01T17:41:22.014Z,98225.94
2023-03-01T17:46:14.550Z,98226.94
2023-03-01T17:50:17.020Z,98227.97
2023-03-01T17:54:19.554Z,98228.13
2023-03-01T17:58:23.014Z,98239.19
2023-03-01T18:02:26.714Z,98241.28
2023-03-01T18:06:29.681Z,98245.38
2023-03-01T18:10:33.534Z,98256.47
2023-03-01T18:14:35.646Z,98252.03
2023-03-01T18:18:38.026Z,98251.09
2023-03-01T18:22:40.136Z,98253.63
2023-03-01T18:26:42.271Z,98256.88
2023-03-01T18:30:44.602Z,98260.06
2023-03-01T18:34:48.743Z,98260.16
2023-03-01T18:38:51.341Z,98262.56
2023-03-01T18:42:53.498Z,98262.34
2023-03-01T18:46:58.528Z,98265.94
2023-03-01T18:51:18.121Z,98262.91
2023-03-01T18:55:20.333Z,98268.03
2023-03-01T18:59:22.384Z,98259.28
2023-03-01T19:03:25.665Z,98256.84
2023-03-01T19:07:27.937Z,98261.53
2023-03-01T19:11:33.289Z,98277.56
2023-03-01T19:15:36.175Z,98278.78
2023-03-01T19:19:39.721Z,98278.06
2023-03-01T19:23:41.801Z,98279.28
2023-03-01T19:27:43.888Z,98281.38
2023-03-01T19:31:45.946Z,98275.00
2023-03-01T19:35:48.560Z,98277.16
2023-03-01T19:39:50.835Z,98277.25
2023-03-01T19:43:54.096Z,98288.44
2023-03-01T19:47:56.143Z,98285.72
2023-03-01T19:51:58.647Z,98295.13
2023-03-01T19:56:02.264Z,98297.06
2023-03-01T20:00:05.134Z,98302.94
2023-03-01T20:04:14.413Z,98307.94
2023-03-01T20:08:16.572Z,98321.09
2023-03-01T20:12:19.437Z,98312.06
2023-03-01T20:16:23.083Z,98316.31
2023-03-01T20:20:25.544Z,98322.47
2023-03-01T20:24:27.668Z,98313.56
2023-03-01T20:28:30.194Z,98314.03
2023-03-01T20:32:33.544Z,98324.34
2023-03-01T20:36:38.572Z,98325.75
2023-03-01T20:40:40.955Z,98330.44
2023-03-01T20:44:46.332Z,98330.88
2023-03-01T20:48:48.395Z,98330.06
2023-03-01T20:52:50.576Z,98324.63
2023-03-01T20:56:52.728Z,98323.06
2023-03-01T21:00:54.892Z,98326.06
2023-03-01T21:04:58.135Z,98331.53
2023-03-01T21:09:00.289Z,98324.84
2023-03-01T21:13:02.565Z,98332.28
2023-03-01T21:17:04.602Z,98318.75
2023-03-01T21:21:09.623Z,98318.34
2023-03-01T21:25:13.179Z,98325.66
2023-03-01T21:29:15.303Z,98331.69
2023-03-01T21:33:17.401Z,98325.47
2023-03-01T21:37:22.520Z,98327.06
2023-03-01T21:41:33.818Z,98323.44
2023-03-01T21:45:36.022Z,98315.66
2023-03-01T21:49:38.235Z,98322.13
2023-03-01T21:53:40.928Z,98321.16
2023-03-01T21:57:43.625Z,98321.97
2023-03-01T22:01:46.003Z,98326.81
2023-03-01T22:05:58.689Z,98327.78
2023-03-01T22:10:01.522Z,98320.53
2023-03-01T22:14:05.177Z,98326.84
2023-03-01T22:18:08.153Z,98324.84
2023-03-01T22:22:10.743Z,98336.94
2023-03-01T22:26:35.685Z,98328.47
2023-03-01T22:30:37.988Z,98328.50
2023-03-01T22:34:40.129Z,98333.72
2023-03-01T22:38:42.453Z,98334.50
2023-03-01T22:42:44.998Z,98326.44
2023-03-01T22:46:47.829Z,98333.25
2023-03-01T22:50:50.376Z,98330.63
2023-03-01T22:54:54.982Z,98337.69
2023-03-01T22:59:02.709Z,98343.19
2023-03-01T23:03:04.824Z,98340.94
2023-03-01T23:07:06.963Z,98343.75
2023-03-01T23:11:12.391Z,98339.47
2023-03-01T23:15:14.661Z,98343.47
2023-03-01T23:19:16.919Z,98341.06
2023-03-01T23:23:19.509Z,98341.28
2023-03-01T23:27:21.969Z,98332.41
2023-03-01T23:31:25.651Z,98334.94
2023-03-01T23:35:28.085Z,98339.19
2023-03-01T23:39:32.130Z,98324.97
2023-03-01T23:43:34.422Z,98323.38
2023-03-01T23:47:36.495Z,98324.09
2023-03-01T23:51:44.672Z,98324.41
2023-03-01T23:55:53.344Z,98318.50
2023-03-01T23:59:55.464Z,98323.38
